sensor_id;sensor_type;location;lat;lon;timestamp;pressure;altitude;pressure_sealevel;temperature;humidity
70546;BME280;58098;51.680;5.134;2023-02-28T00:00:24;103190.50;;;-0.73;100.00
70546;BME280;58098;51.680;5.134;2023-02-28T00:02:50;103230.72;;;-0.59;100.00
70546;BME280;58098;51.680;5.134;2023-02-28T00:05:18;103200.75;;;-0.76;100.00
70546;BME280;58098;51.680;5.134;2023-02-28T00:07:44;103224.69;;;-0.68;100.00
70546;BME280;58098;51.680;5.134;2023-02-28T00:10:12;103210.09;;;-0.81;100.00
70546;BME280;58098;51.680;5.134;2023-02-28T00:12:38;103226.38;;;-0.76;100.00
70546;BME280;58098;51.680;5.134;2023-02-28T00:15:09;103230.59;;;-0.84;100.00
70546;BME280;58098;51.680;5.134;2023-02-28T00:17:35;103219.38;;;-0.96;100.00
70546;BME280;58098;51.680;5.134;2023-02-28T00:20:01;103216.84;;;-0.98;100.00
70546;BME280;58098;51.680;5.134;2023-02-28T00:22:27;103214.16;;;-1.13;100.00
70546;BME280;58098;51.680;5.134;2023-02-28T00:24:53;103221.88;;;-1.08;100.00
70546;BME280;58098;51.680;5.134;2023-02-28T00:27:18;103217.47;;;-1.23;100.00
70546;BME280;58098;51.680;5.134;2023-02-28T00:29:43;103227.72;;;-1.24;100.00
70546;BME280;58098;51.680;5.134;2023-02-28T00:32:11;103222.59;;;-1.24;100.00
70546;BME280;58098;51.680;5.134;2023-02-28T00:34:36;103222.56;;;-1.26;100.00
70546;BME280;58098;51.680;5.134;2023-02-28T00:37:07;103226.81;;;-1.28;100.00
70546;BME280;58098;51.680;5.134;2023-02-28T00:39:35;103207.13;;;-1.40;100.00
70546;BME280;58098;51.680;5.134;2023-02-28T00:42:00;103214.00;;;-1.31;100.00
70546;BME280;58098;51.680;5.134;2023-02-28T00:44:26;103223.53;;;-1.15;100.00
70546;BME280;58098;51.680;5.134;2023-02-28T00:46:51;103204.75;;;-1.15;100.00
70546;BME280;58098;51.680;5.134;2023-02-28T00:49:17;103207.38;;;-1.06;100.00
70546;BME280;58098;51.680;5.134;2023-02-28T00:51:42;103215.16;;;-0.91;100.00
70546;BME280;58098;51.680;5.134;2023-02-28T00:54:08;103192.94;;;-0.94;100.00
70546;BME280;58098;51.680;5.134;2023-02-28T00:56:33;103215.25;;;-0.75;100.00
70546;BME280;58098;51.680;5.134;2023-02-28T00:58:58;103208.44;;;-0.70;100.00
70546;BME280;58098;51.680;5.134;2023-02-28T01:01:24;103212.75;;;-0.62;100.00
70546;BME280;58098;51.680;5.134;2023-02-28T01:03:49;103216.19;;;-0.56;100.00
70546;BME280;58098;51.680;5.134;2023-02-28T01:06:14;103222.25;;;-0.49;100.00
70546;BME280;58098;51.680;5.134;2023-02-28T01:08:40;103199.97;;;-0.61;100.00
70546;BME280;58098;51.680;5.134;2023-02-28T01:11:11;103200.88;;;-0.51;100.00
70546;BME280;58098;51.680;5.134;2023-02-28T01:13:37;103224.00;;;-0.39;100.00
70546;BME280;58098;51.680;5.134;2023-02-28T01:16:02;103207.72;;;-0.43;100.00
70546;BME280;58098;51.680;5.134;2023-02-28T01:18:27;103218.03;;;-0.35;100.00
70546;BME280;58098;51.680;5.134;2023-02-28T01:20:53;103209.50;;;-0.33;100.00
70546;BME280;58098;51.680;5.134;2023-02-28T01:23:20;103207.81;;;-0.29;100.00
70546;BME280;58098;51.680;5.134;2023-02-28T01:25:47;103212.06;;;-0.27;100.00
70546;BME280;58098;51.680;5.134;2023-02-28T01:28:12;103205.25;;;-0.28;100.00
70546;BME280;58098;51.680;5.134;2023-02-28T01:30:38;103201.81;;;-0.27;100.00
70546;BME280;58098;51.680;5.134;2023-02-28T01:33:03;103202.69;;;-0.25;100.00
70546;BME280;58098;51.680;5.134;2023-02-28T01:35:28;103200.94;;;-0.29;100.00
70546;BME280;58098;51.680;5.134;2023-02-28T01:37:56;103218.94;;;-0.21;100.00
70546;BME280;58098;51.680;5.134;2023-02-28T01:40:22;103212.06;;;-0.30;100.00
70546;BME280;58098;51.680;5.134;2023-02-28T01:42:47;103217.19;;;-0.27;100.00
70546;BME280;58098;51.680;5.134;2023-02-28T01:45:28;103230.94;;;-0.14;100.00
70546;BME280;58098;51.680;5.134;2023-02-28T01:47:58;103224.94;;;-0.12;100.00
70546;BME280;58098;51.680;5.134;2023-02-28T01:50:28;103207.00;;;-0.18;100.00
70546;BME280;58098;51.680;5.134;2023-02-28T01:52:56;103207.00;;;-0.07;100.00
70546;BME280;58098;51.680;5.134;2023-02-28T01:55:24;103220.75;;;0.04;100.00
70546;BME280;58098;51.680;5.134;2023-02-28T01:57:56;103223.31;;;0.07;100.00
70546;BME280;58098;51.680;5.134;2023-02-28T02:00:24;103186.53;;;-0.03;100.00
70546;BME280;58098;51.680;5.134;2023-02-28T02:02:54;103216.50;;;0.18;100.00
70546;BME280;58098;51.680;5.134;2023-02-28T02:05:23;103189.09;;;0.11;100.00
70546;BME280;58098;51.680;5.134;2023-02-28T02:07:55;103201.94;;;0.17;100.00
70546;BME280;58098;51.680;5.134;2023-02-28T02:10:33;103208.81;;;0.24;100.00
70546;BME280;58098;51.680;5.134;2023-02-28T02:16:11;103196.84;;;0.26;100.00
70546;BME280;58098;51.680;5.134;2023-02-28T02:27:52;103196.84;;;0.44;100.00
70546;BME280;58098;51.680;5.134;2023-02-28T02:36:41;103203.72;;;0.48;100.00
70546;BME280;58098;51.680;5.134;2023-02-28T02:39:13;103196.84;;;0.50;100.00
70546;BME280;58098;51.680;5.134;2023-02-28T02:41:51;103209.69;;;0.52;100.00
70546;BME280;58098;51.680;5.134;2023-02-28T02:47:10;103184.00;;;0.44;100.00
70546;BME280;58098;51.680;5.134;2023-02-28T02:49:38;103196.88;;;0.53;100.00
70546;BME280;58098;51.680;5.134;2023-02-28T02:52:08;103184.88;;;0.49;100.00
70546;BME280;58098;51.680;5.134;2023-02-28T02:54:38;103188.31;;;0.57;100.00
70546;BME280;58098;51.680;5.134;2023-02-28T02:57:12;103189.16;;;0.58;100.00
70546;BME280;58098;51.680;5.134;2023-02-28T02:59:40;103191.72;;;0.55;100.00
70546;BME280;58098;51.680;5.134;2023-02-28T03:02:10;103177.16;;;0.52;100.00
70546;BME280;58098;51.680;5.134;2023-02-28T03:04:53;103196.84;;;0.64;100.00
70546;BME280;58098;51.680;5.134;2023-02-28T03:07:25;103191.72;;;0.61;100.00
70546;BME280;58098;51.680;5.134;2023-02-28T03:09:52;103208.00;;;0.64;100.00
70546;BME280;58098;51.680;5.134;2023-02-28T03:12:19;103201.13;;;0.66;100.00
70546;BME280;58098;51.680;5.134;2023-02-28T03:26:16;103172.88;;;0.66;100.00
70546;BME280;58098;51.680;5.134;2023-02-28T03:28:51;103172.03;;;0.68;100.00
70546;BME280;58098;51.680;5.134;2023-02-28T03:34:11;103172.03;;;0.75;100.00
70546;BME280;58098;51.680;5.134;2023-02-28T03:36:40;103176.31;;;0.72;100.00
70546;BME280;58098;51.680;5.134;2023-02-28T03:39:16;103184.00;;;0.81;100.00
70546;BME280;58098;51.680;5.134;2023-02-28T03:41:45;103182.31;;;0.80;100.00
70546;BME280;58098;51.680;5.134;2023-02-28T03:44:19;103188.28;;;0.86;100.00
70546;BME280;58098;51.680;5.134;2023-02-28T03:46:52;103193.41;;;0.89;100.00
70546;BME280;58098;51.680;5.134;2023-02-28T03:49:23;103188.28;;;0.82;100.00
70546;BME280;58098;51.680;5.134;2023-02-28T03:51:50;103201.97;;;0.91;100.00
70546;BME280;58098;51.680;5.134;2023-02-28T03:54:20;103195.97;;;0.88;100.00
70546;BME280;58098;51.680;5.134;2023-02-28T03:56:51;103206.28;;;0.92;100.00
70546;BME280;58098;51.680;5.134;2023-02-28T03:59:35;103204.53;;;0.93;100.00
70546;BME280;58098;51.680;5.134;2023-02-28T04:02:02;103199.41;;;0.93;100.00
70546;BME280;58098;51.680;5.134;2023-02-28T04:04:28;103192.56;;;0.89;100.00
70546;BME280;58098;51.680;5.134;2023-02-28T04:07:01;103204.53;;;0.96;100.00
70546;BME280;58098;51.680;5.134;2023-02-28T04:09:27;103196.88;;;0.85;100.00
70546;BME280;58098;51.680;5.134;2023-02-28T04:11:53;103198.53;;;0.91;100.00
70546;BME280;58098;51.680;5.134;2023-02-28T04:14:20;103184.88;;;0.84;100.00
70546;BME280;58098;51.680;5.134;2023-02-28T04:16:46;103198.56;;;0.92;100.00
70546;BME280;58098;51.680;5.134;2023-02-28T04:19:13;103190.84;;;0.88;100.00
70546;BME280;58098;51.680;5.134;2023-02-28T04:21:41;103189.16;;;0.90;100.00
70546;BME280;58098;51.680;5.134;2023-02-28T04:24:09;103184.00;;;0.84;100.00
70546;BME280;58098;51.680;5.134;2023-02-28T04:26:40;103193.44;;;0.85;100.00
70546;BME280;58098;51.680;5.134;2023-02-28T04:29:06;103198.53;;;0.91;100.00
70546;BME280;58098;51.680;5.134;2023-02-28T04:31:32;103207.97;;;0.98;100.00
70546;BME280;58098;51.680;5.134;2023-02-28T04:33:58;103207.13;;;0.96;100.00
70546;BME280;58098;51.680;5.134;2023-02-28T04:36:23;103194.28;;;0.91;100.00
70546;BME280;58098;51.680;5.134;2023-02-28T04:38:49;103207.97;;;0.98;100.00
70546;BME280;58098;51.680;5.134;2023-02-28T04:41:15;103213.09;;;1.01;100.00
70546;BME280;58098;51.680;5.134;2023-02-28T04:43:41;103200.28;;;0.95;100.00
70546;BME280;58098;51.680;5.134;2023-02-28T04:46:06;103197.72;;;0.95;100.00
70546;BME280;58098;51.680;5.134;2023-02-28T04:48:34;103216.53;;;1.03;100.00
70546;BME280;58098;51.680;5.134;2023-02-28T04:51:02;103216.53;;;1.06;100.00
70546;BME280;58098;51.680;5.134;2023-02-28T04:53:28;103196.84;;;0.99;100.00
70546;BME280;58098;51.680;5.134;2023-02-28T04:55:54;103202.81;;;0.98;100.00
70546;BME280;58098;51.680;5.134;2023-02-28T04:58:20;103204.53;;;0.99;100.00
70546;BME280;58098;51.680;5.134;2023-02-28T05:00:48;103228.53;;;1.08;100.00
70546;BME280;58098;51.680;5.134;2023-02-28T05:03:13;103225.94;;;1.10;100.00
70546;BME280;58098;51.680;5.134;2023-02-28T05:05:38;103223.38;;;1.07;100.00
70546;BME280;58098;51.680;5.134;2023-02-28T05:08:04;103220.81;;;1.11;100.00
70546;BME280;58098;51.680;5.134;2023-02-28T05:10:30;103223.38;;;1.07;100.00
70546;BME280;58098;51.680;5.134;2023-02-28T05:12:56;103227.66;;;1.08;100.00
70546;BME280;58098;51.680;5.134;2023-02-28T05:15:21;103245.66;;;1.11;100.00
70546;BME280;58098;51.680;5.134;2023-02-28T05:17:46;103237.09;;;1.12;100.00
70546;BME280;58098;51.680;5.134;2023-02-28T05:20:12;103233.66;;;1.10;100.00
70546;BME280;58098;51.680;5.134;2023-02-28T05:22:39;103219.13;;;1.00;100.00
70546;BME280;58098;51.680;5.134;2023-02-28T05:25:05;103235.38;;;1.11;100.00
70546;BME280;58098;51.680;5.134;2023-02-28T05:27:30;103229.38;;;1.07;100.00
70546;BME280;58098;51.680;5.134;2023-02-28T05:29:56;103228.53;;;1.04;100.00
70546;BME280;58098;51.680;5.134;2023-02-28T05:32:21;103230.22;;;1.08;100.00
70546;BME280;58098;51.680;5.134;2023-02-28T05:34:47;103238.78;;;1.10;100.00
70546;BME280;58098;51.680;5.134;2023-02-28T05:37:13;103219.97;;;0.99;100.00
70546;BME280;58098;51.680;5.134;2023-02-28T05:39:39;103236.22;;;1.11;100.00
70546;BME280;58098;51.680;5.134;2023-02-28T05:42:05;103222.53;;;1.03;100.00
70546;BME280;58098;51.680;5.134;2023-02-28T05:44:30;103231.06;;;1.10;100.00
70546;BME280;58098;51.680;5.134;2023-02-28T05:46:55;103242.25;;;1.12;100.00
70546;BME280;58098;51.680;5.134;2023-02-28T05:49:21;103225.94;;;1.05;100.00
70546;BME280;58098;51.680;5.134;2023-02-28T05:51:46;103236.22;;;1.11;100.00
70546;BME280;58098;51.680;5.134;2023-02-28T05:54:12;103223.38;;;1.07;100.00
70546;BME280;58098;51.680;5.134;2023-02-28T05:56:37;103231.09;;;1.08;100.00
70546;BME280;58098;51.680;5.134;2023-02-28T05:59:05;103222.50;;;1.05;100.00
70546;BME280;58098;51.680;5.134;2023-02-28T06:01:36;103233.66;;;1.13;100.00
70546;BME280;58098;51.680;5.134;2023-02-28T06:04:03;103227.66;;;1.11;100.00
70546;BME280;58098;51.680;5.134;2023-02-28T06:06:29;103220.78;;;1.10;100.00
70546;BME280;58098;51.680;5.134;2023-02-28T06:08:55;103221.66;;;1.12;100.00
70546;BME280;58098;51.680;5.134;2023-02-28T06:11:21;103229.38;;;1.16;100.00
70546;BME280;58098;51.680;5.134;2023-02-28T06:13:54;103201.94;;;1.08;100.00
70546;BME280;58098;51.680;5.134;2023-02-28T06:16:19;103202.84;;;1.07;100.00
70546;BME280;58098;51.680;5.134;2023-02-28T06:18:44;103226.78;;;1.15;100.00
70546;BME280;58098;51.680;5.134;2023-02-28T06:21:12;103210.53;;;1.07;100.00
70546;BME280;58098;51.680;5.134;2023-02-28T06:23:37;103220.81;;;1.11;100.00
70546;BME280;58098;51.680;5.134;2023-02-28T06:26:02;103215.66;;;1.13;100.00
70546;BME280;58098;51.680;5.134;2023-02-28T06:28:28;103226.78;;;1.18;100.00
70546;BME280;58098;51.680;5.134;2023-02-28T06:30:53;103237.91;;;1.20;100.00
70546;BME280;58098;51.680;5.134;2023-02-28T06:33:18;103227.66;;;1.21;100.00
70546;BME280;58098;51.680;5.134;2023-02-28T06:35:46;103219.94;;;1.14;100.00
70546;BME280;58098;51.680;5.134;2023-02-28T06:38:11;103225.09;;;1.14;100.00
70546;BME280;58098;51.680;5.134;2023-02-28T06:40:37;103218.19;;;1.22;100.00
70546;BME280;58098;51.680;5.134;2023-02-28T06:43:03;103216.50;;;1.21;100.00
70546;BME280;58098;51.680;5.134;2023-02-28T06:45:28;103211.38;;;1.21;100.00
70546;BME280;58098;51.680;5.134;2023-02-28T06:47:54;103219.06;;;1.19;100.00
70546;BME280;58098;51.680;5.134;2023-02-28T06:50:20;103212.22;;;1.15;100.00
70546;BME280;58098;51.680;5.134;2023-02-28T06:52:46;103211.38;;;1.18;100.00
70546;BME280;58098;51.680;5.134;2023-02-28T06:55:11;103230.19;;;1.33;100.00
70546;BME280;58098;51.680;5.134;2023-02-28T06:57:37;103233.63;;;1.36;100.00
70546;BME280;58098;51.680;5.134;2023-02-28T07:00:09;103225.88;;;1.34;100.00
70546;BME280;58098;51.680;5.134;2023-02-28T07:02:35;103230.16;;;1.37;100.00
70546;BME280;58098;51.680;5.134;2023-02-28T07:05:01;103239.59;;;1.41;100.00
70546;BME280;58098;51.680;5.134;2023-02-28T07:07:26;103231.91;;;1.41;100.00
70546;BME280;58098;51.680;5.134;2023-02-28T07:09:51;103255.88;;;1.50;100.00
70546;BME280;58098;51.680;5.134;2023-02-28T07:12:17;103252.41;;;1.54;100.00
70546;BME280;58098;51.680;5.134;2023-02-28T07:14:42;103250.72;;;1.53;100.00
70546;BME280;58098;51.680;5.134;2023-02-28T07:17:09;103234.44;;;1.47;100.00
70546;BME280;58098;51.680;5.134;2023-02-28T07:19:35;103255.84;;;1.65;100.00
70546;BME280;58098;51.680;5.134;2023-02-28T07:22:01;103254.94;;;1.69;100.00
70546;BME280;58098;51.680;5.134;2023-02-28T07:24:28;103259.22;;;1.76;100.00
70546;BME280;58098;51.680;5.134;2023-02-28T07:26:54;103259.19;;;1.81;100.00
70546;BME280;58098;51.680;5.134;2023-02-28T07:29:20;103272.88;;;1.87;100.00
70546;BME280;58098;51.680;5.134;2023-02-28T07:31:45;103263.47;;;1.89;100.00
70546;BME280;58098;51.680;5.134;2023-02-28T07:34:11;103247.19;;;1.84;100.00
70546;BME280;58098;51.680;5.134;2023-02-28T07:36:37;103256.56;;;1.93;100.00
70546;BME280;58098;51.680;5.134;2023-02-28T07:39:02;103256.56;;;1.99;100.00
70546;BME280;58098;51.680;5.134;2023-02-28T07:41:28;103275.34;;;2.15;100.00
70546;BME280;58098;51.680;5.134;2023-02-28T07:43:55;103265.88;;;2.17;100.00
70546;BME280;58098;51.680;5.134;2023-02-28T07:46:22;103249.59;;;2.15;100.00
70546;BME280;58098;51.680;5.134;2023-02-28T07:48:47;103271.81;;;2.34;100.00
70546;BME280;58098;51.680;5.134;2023-02-28T07:51:13;103260.63;;;2.41;100.00
70546;BME280;58098;51.680;5.134;2023-02-28T07:53:38;103273.50;;;2.39;100.00
70546;BME280;58098;51.680;5.134;2023-02-28T07:56:04;103264.88;;;2.48;100.00
70546;BME280;58098;51.680;5.134;2023-02-28T07:58:30;103277.69;;;2.57;100.00
70546;BME280;58098;51.680;5.134;2023-02-28T08:00:56;103260.56;;;2.50;100.00
70546;BME280;58098;51.680;5.134;2023-02-28T08:03:23;103256.22;;;2.56;100.00
70546;BME280;58098;51.680;5.134;2023-02-28T08:05:49;103274.13;;;2.73;100.00
70546;BME280;58098;51.680;5.134;2023-02-28T08:08:16;103262.91;;;2.79;100.00
70546;BME280;58098;51.680;5.134;2023-02-28T08:10:42;103272.34;;;2.84;100.00
70546;BME280;58098;51.680;5.134;2023-02-28T08:13:09;103264.53;;;2.93;100.00
70546;BME280;58098;51.680;5.134;2023-02-28T08:15:35;103267.88;;;3.00;100.00
70546;BME280;58098;51.680;5.134;2023-02-28T08:18:01;103274.69;;;3.10;100.00
70546;BME280;58098;51.680;5.134;2023-02-28T08:20:27;103263.53;;;3.08;100.00
70546;BME280;58098;51.680;5.134;2023-02-28T08:22:52;103249.75;;;3.10;100.00
70546;BME280;58098;51.680;5.134;2023-02-28T08:25:18;103272.75;;;3.31;100.00
70546;BME280;58098;51.680;5.134;2023-02-28T08:27:43;103252.94;;;3.37;100.00
70546;BME280;58098;51.680;5.134;2023-02-28T08:30:12;103278.59;;;3.49;100.00
70546;BME280;58098;51.680;5.134;2023-02-28T08:32:39;103247.78;;;3.33;100.00
70546;BME280;58098;51.680;5.134;2023-02-28T08:35:05;103263.16;;;3.46;100.00
70546;BME280;58098;51.680;5.134;2023-02-28T08:37:31;103273.28;;;3.64;100.00
70546;BME280;58098;51.680;5.134;2023-02-28T08:39:56;103252.63;;;3.64;100.00
70546;BME280;58098;51.680;5.134;2023-02-28T08:42:21;103261.97;;;3.77;100.00
70546;BME280;58098;51.680;5.134;2023-02-28T08:44:47;103263.56;;;3.87;100.00
70546;BME280;58098;51.680;5.134;2023-02-28T08:47:12;103259.13;;;3.95;100.00
70546;BME280;58098;51.680;5.134;2023-02-28T08:49:38;103237.69;;;3.90;100.00
70546;BME280;58098;51.680;5.134;2023-02-28T08:52:03;103229.22;;;3.79;100.00
70546;BME280;58098;51.680;5.134;2023-02-28T08:54:28;103246.38;;;3.83;100.00
70546;BME280;58098;51.680;5.134;2023-02-28T08:56:56;103254.25;;;3.74;100.00
70546;BME280;58098;51.680;5.134;2023-02-28T08:59:21;103268.09;;;3.67;100.00
70546;BME280;58098;51.680;5.134;2023-02-28T09:01:47;103269.91;;;3.59;100.00
70546;BME280;58098;51.680;5.134;2023-02-28T09:04:12;103263.03;;;3.58;100.00
70546;BME280;58098;51.680;5.134;2023-02-28T09:06:37;103264.63;;;3.68;100.00
70546;BME280;58098;51.680;5.134;2023-02-28T09:09:03;103268.69;;;3.88;100.00
70546;BME280;58098;51.680;5.134;2023-02-28T09:11:31;103247.00;;;4.01;100.00
70546;BME280;58098;51.680;5.134;2023-02-28T09:13:57;103246.84;;;4.12;100.00
70546;BME280;58098;51.680;5.134;2023-02-28T09:16:24;103264.69;;;4.32;100.00
70546;BME280;58098;51.680;5.134;2023-02-28T09:18:49;103252.50;;;4.38;100.00
70546;BME280;58098;51.680;5.134;2023-02-28T09:21:16;103261.53;;;4.68;100.00
70546;BME280;58098;51.680;5.134;2023-02-28T09:23:44;103248.34;;;4.85;100.00
70546;BME280;58098;51.680;5.134;2023-02-28T09:26:23;103254.78;;;5.13;100.00
70546;BME280;58098;51.680;5.134;2023-02-28T09:28:49;103255.47;;;5.21;100.00
70546;BME280;58098;51.680;5.134;2023-02-28T09:31:16;103263.97;;;5.29;100.00
70546;BME280;58098;51.680;5.134;2023-02-28T09:33:42;103261.63;;;5.14;100.00
70546;BME280;58098;51.680;5.134;2023-02-28T09:36:07;103259.00;;;5.17;100.00
70546;BME280;58098;51.680;5.134;2023-02-28T09:38:32;103272.72;;;5.22;100.00
70546;BME280;58098;51.680;5.134;2023-02-28T09:41:01;103267.59;;;5.20;100.00
70546;BME280;58098;51.680;5.134;2023-02-28T09:43:34;103266.81;;;5.14;100.00
70546;BME280;58098;51.680;5.134;2023-02-28T09:48:47;103273.88;;;5.06;100.00
70546;BME280;58098;51.680;5.134;2023-02-28T09:53:41;103240.91;;;4.66;100.00
70546;BME280;58098;51.680;5.134;2023-02-28T09:56:15;103264.78;;;4.81;100.00
70546;BME280;58098;51.680;5.134;2023-02-28T10:01:39;103255.59;;;4.63;100.00
70546;BME280;58098;51.680;5.134;2023-02-28T10:04:18;103272.03;;;4.59;100.00
70546;BME280;58098;51.680;5.134;2023-02-28T10:06:50;103266.16;;;4.49;100.00
70546;BME280;58098;51.680;5.134;2023-02-28T10:09:26;103262.72;;;4.49;100.00
70546;BME280;58098;51.680;5.134;2023-02-28T10:12:04;103268.75;;;4.49;100.00
70546;BME280;58098;51.680;5.134;2023-02-28T10:14:32;103239.63;;;4.37;100.00
70546;BME280;58098;51.680;5.134;2023-02-28T10:17:11;103261.81;;;4.51;100.00
70546;BME280;58098;51.680;5.134;2023-02-28T10:25:04;103248.94;;;4.47;100.00
70546;BME280;58098;51.680;5.134;2023-02-28T10:27:34;103260.09;;;4.50;100.00
70546;BME280;58098;51.680;5.134;2023-02-28T10:30:00;103253.13;;;4.55;100.00
70546;BME280;58098;51.680;5.134;2023-02-28T10:32:32;103249.66;;;4.56;100.00
70546;BME280;58098;51.680;5.134;2023-02-28T10:37:37;103239.31;;;4.56;100.00
70546;BME280;58098;51.680;5.134;2023-02-28T10:40:05;103228.16;;;4.54;100.00
70546;BME280;58098;51.680;5.134;2023-02-28T10:42:31;103249.44;;;4.72;100.00
70546;BME280;58098;51.680;5.134;2023-02-28T10:45:13;103235.69;;;4.68;100.00
70546;BME280;58098;51.680;5.134;2023-02-28T10:53:12;103240.50;;;4.91;100.00
70546;BME280;58098;51.680;5.134;2023-02-28T10:55:40;103236.19;;;4.91;100.00
70546;BME280;58098;51.680;5.134;2023-02-28T10:58:20;103235.16;;;5.01;100.00
70546;BME280;58098;51.680;5.134;2023-02-28T11:00:46;103228.91;;;5.11;100.00
70546;BME280;58098;51.680;5.134;2023-02-28T11:03:32;103228.63;;;5.28;100.00
70546;BME280;58098;51.680;5.134;2023-02-28T11:05:58;103223.38;;;5.31;100.00
70546;BME280;58098;51.680;5.134;2023-02-28T11:08:24;103218.78;;;5.45;100.00
70546;BME280;58098;51.680;5.134;2023-02-28T11:10:58;103208.59;;;5.38;100.00
70546;BME280;58098;51.680;5.134;2023-02-28T11:13:33;103202.31;;;5.49;100.00
70546;BME280;58098;51.680;5.134;2023-02-28T11:16:03;103205.81;;;5.45;100.00
70546;BME280;58098;51.680;5.134;2023-02-28T11:18:32;103210.91;;;5.51;100.00
70546;BME280;58098;51.680;5.134;2023-02-28T11:21:02;103223.56;;;5.65;100.00
70546;BME280;58098;51.680;5.134;2023-02-28T11:23:30;103195.22;;;5.59;100.00
70546;BME280;58098;51.680;5.134;2023-02-28T11:26:00;103207.97;;;5.69;100.00
70546;BME280;58098;51.680;5.134;2023-02-28T11:28:34;103209.69;;;5.67;100.00
70546;BME280;58098;51.680;5.134;2023-02-28T11:33:45;103205.22;;;5.75;100.00
70546;BME280;58098;51.680;5.134;2023-02-28T11:36:15;103199.94;;;5.81;100.00
70546;BME280;58098;51.680;5.134;2023-02-28T11:38:41;103207.47;;;5.93;100.00
70546;BME280;58098;51.680;5.134;2023-02-28T11:46:36;103202.44;;;6.24;100.00
70546;BME280;58098;51.680;5.134;2023-02-28T11:59:57;103182.28;;;6.37;100.00
70546;BME280;58098;51.680;5.134;2023-02-28T12:07:31;103162.13;;;6.48;100.00
70546;BME280;58098;51.680;5.134;2023-02-28T12:10:26;103168.66;;;6.64;100.00
70546;BME280;58098;51.680;5.134;2023-02-28T12:18:50;103149.25;;;6.77;100.00
70546;BME280;58098;51.680;5.134;2023-02-28T12:26:51;103165.41;;;6.88;97.60
70546;BME280;58098;51.680;5.134;2023-02-28T12:29:43;103151.19;;;7.01;100.00
70546;BME280;58098;51.680;5.134;2023-02-28T12:32:33;103151.78;;;7.12;89.22
70546;BME280;58098;51.680;5.134;2023-02-28T12:37:38;103140.41;;;7.16;94.81
70546;BME280;58098;51.680;5.134;2023-02-28T12:40:11;103154.75;;;7.29;100.00
70546;BME280;58098;51.680;5.134;2023-02-28T12:42:42;103153.03;;;7.30;90.36
70546;BME280;58098;51.680;5.134;2023-02-28T12:45:41;103156.09;;;7.43;100.00
70546;BME280;58098;51.680;5.134;2023-02-28T12:48:13;103141.06;;;7.24;80.48
70546;BME280;58098;51.680;5.134;2023-02-28T12:50:40;103150.63;;;7.22;85.90
70546;BME280;58098;51.680;5.134;2023-02-28T12:53:23;103152.25;;;7.26;84.10
70546;BME280;58098;51.680;5.134;2023-02-28T12:58:39;103155.78;;;7.24;94.75
70546;BME280;58098;51.680;5.134;2023-02-28T13:01:34;103153.97;;;7.27;82.59
70546;BME280;58098;51.680;5.134;2023-02-28T13:04:26;103144.59;;;7.22;86.02
70546;BME280;58098;51.680;5.134;2023-02-28T13:07:08;103124.50;;;7.28;73.80
70546;BME280;58098;51.680;5.134;2023-02-28T13:09:39;103127.44;;;7.16;74.62
70546;BME280;58098;51.680;5.134;2023-02-28T13:12:13;103127.13;;;7.27;73.29
70546;BME280;58098;51.680;5.134;2023-02-28T13:14:39;103103.31;;;7.13;90.28
70546;BME280;58098;51.680;5.134;2023-02-28T13:19:34;103116.31;;;7.70;100.00
70546;BME280;58098;51.680;5.134;2023-02-28T13:22:01;103105.94;;;7.70;86.31
70546;BME280;58098;51.680;5.134;2023-02-28T13:24:43;103104.66;;;7.83;88.60
70546;BME280;58098;51.680;5.134;2023-02-28T13:29:38;103103.59;;;7.88;87.40
70546;BME280;58098;51.680;5.134;2023-02-28T13:39:49;103107.78;;;8.20;83.82
70546;BME280;58098;51.680;5.134;2023-02-28T13:42:34;103110.16;;;8.28;76.38
70546;BME280;58098;51.680;5.134;2023-02-28T13:47:42;103106.09;;;8.19;77.12
70546;BME280;58098;51.680;5.134;2023-02-28T13:56:01;103095.47;;;7.99;73.66
70546;BME280;58098;51.680;5.134;2023-02-28T13:58:40;103092.94;;;7.97;74.31
70546;BME280;58098;51.680;5.134;2023-02-28T14:01:45;103094.75;;;7.95;85.35
70546;BME280;58098;51.680;5.134;2023-02-28T14:07:01;103086.13;;;7.93;74.67
70546;BME280;58098;51.680;5.134;2023-02-28T14:11:55;103081.94;;;7.89;59.84
70546;BME280;58098;51.680;5.134;2023-02-28T14:17:03;103078.63;;;7.84;69.73
70546;BME280;58098;51.680;5.134;2023-02-28T14:19:30;103076.34;;;8.02;67.63
70546;BME280;58098;51.680;5.134;2023-02-28T14:22:00;103078.53;;;8.14;63.71
70546;BME280;58098;51.680;5.134;2023-02-28T14:27:42;103071.78;;;8.08;70.16
70546;BME280;58098;51.680;5.134;2023-02-28T14:30:36;103084.06;;;8.03;79.43
70546;BME280;58098;51.680;5.134;2023-02-28T14:33:27;103080.28;;;8.13;73.96
70546;BME280;58098;51.680;5.134;2023-02-28T14:36:24;103079.00;;;8.26;75.64
70546;BME280;58098;51.680;5.134;2023-02-28T14:38:59;103081.28;;;8.37;71.87
70546;BME280;58098;51.680;5.134;2023-02-28T14:41:35;103077.66;;;8.41;74.45
70546;BME280;58098;51.680;5.134;2023-02-28T14:44:03;103083.16;;;8.32;66.26
70546;BME280;58098;51.680;5.134;2023-02-28T14:46:40;103078.06;;;8.29;72.79
70546;BME280;58098;51.680;5.134;2023-02-28T14:49:07;103076.47;;;8.23;64.52
70546;BME280;58098;51.680;5.134;2023-02-28T14:51:37;103048.59;;;8.28;78.92
70546;BME280;58098;51.680;5.134;2023-02-28T14:54:03;103071.69;;;8.37;74.91
70546;BME280;58098;51.680;5.134;2023-02-28T14:56:36;103076.84;;;8.39;70.63
70546;BME280;58098;51.680;5.134;2023-02-28T14:59:03;103076.63;;;8.19;64.01
70546;BME280;58098;51.680;5.134;2023-02-28T15:01:29;103073.72;;;8.29;64.37
70546;BME280;58098;51.680;5.134;2023-02-28T15:04:03;103067.13;;;8.18;59.95
70546;BME280;58098;51.680;5.134;2023-02-28T15:06:29;103062.28;;;7.81;57.42
70546;BME280;58098;51.680;5.134;2023-02-28T15:09:10;103055.28;;;7.55;67.18